createdAt,value
2023-12-24T00:02:26.914Z,2.80
2023-12-24T00:04:54.576Z,2.40
2023-12-24T00:07:22.212Z,2.60
2023-12-24T00:09:50.186Z,2.20
2023-12-24T00:12:17.846Z,3.50
2023-12-24T00:14:45.402Z,2.50
2023-12-24T00:17:12.990Z,2.20
2023-12-24T00:19:40.659Z,2.20
2023-12-24T00:22:08.177Z,1.60
2023-12-24T00:24:35.743Z,2.10
2023-12-24T00:27:03.293Z,1.40
2023-12-24T00:29:30.911Z,1.40
2023-12-24T00:31:58.944Z,1.10
2023-12-24T00:34:26.592Z,1.30
2023-12-24T00:36:54.255Z,1.70
2023-12-24T00:39:22.021Z,2.40
2023-12-24T00:41:49.571Z,2.50
2023-12-24T00:44:17.182Z,1.80
2023-12-24T00:46:44.906Z,2.30
2023-12-24T00:49:12.530Z,1.80
2023-12-24T00:51:40.313Z,1.70
2023-12-24T00:54:07.870Z,1.80
2023-12-24T00:56:35.573Z,2.10
2023-12-24T00:59:03.324Z,3.30
2023-12-24T01:01:31.056Z,2.20
2023-12-24T01:03:58.708Z,2.40
2023-12-24T01:06:26.646Z,1.80
2023-12-24T01:08:54.359Z,2.10
2023-12-24T01:11:22.062Z,1.90
2023-12-24T01:13:49.477Z,2.30
2023-12-24T01:16:17.136Z,1.70
2023-12-24T01:18:44.798Z,1.50
2023-12-24T01:21:12.560Z,1.60
2023-12-24T01:23:40.349Z,1.70
2023-12-24T01:26:08.106Z,1.30
2023-12-24T01:28:35.651Z,1.50
2023-12-24T01:31:03.377Z,1.10
2023-12-24T01:33:31.123Z,1.20
2023-12-24T01:35:58.674Z,1.00
2023-12-24T01:38:26.520Z,1.20
2023-12-24T01:40:54.157Z,1.70
2023-12-24T01:43:21.723Z,1.40
2023-12-24T01:45:49.378Z,1.20
2023-12-24T01:48:16.980Z,1.20
2023-12-24T01:50:44.818Z,1.60
2023-12-24T01:53:12.496Z,1.10
2023-12-24T01:55:40.264Z,1.30
2023-12-24T01:58:07.786Z,1.80
2023-12-24T02:00:35.717Z,1.50
2023-12-24T02:03:03.442Z,1.70
2023-12-24T02:05:31.137Z,1.70
2023-12-24T02:07:58.756Z,1.80
2023-12-24T02:10:26.296Z,1.40
2023-12-24T02:12:53.979Z,1.20
2023-12-24T02:15:21.723Z,1.10
2023-12-24T02:17:49.459Z,1.40
2023-12-24T02:20:17.504Z,1.40
2023-12-24T02:22:45.327Z,1.40
2023-12-24T02:25:12.883Z,1.60
2023-12-24T02:27:40.565Z,1.40
2023-12-24T02:30:08.227Z,1.40
2023-12-24T02:32:35.817Z,1.50
2023-12-24T02:35:03.569Z,1.60
2023-12-24T02:37:31.291Z,1.60
2023-12-24T02:39:58.851Z,1.90
2023-12-24T02:42:26.714Z,2.00
2023-12-24T02:44:54.171Z,1.80
2023-12-24T02:47:21.770Z,3.10
2023-12-24T02:49:49.587Z,2.20
2023-12-24T02:52:17.167Z,1.50
2023-12-24T02:54:44.805Z,1.70
2023-12-24T02:57:12.377Z,1.50
2023-12-24T02:59:40.024Z,1.90
2023-12-24T03:02:08.041Z,1.80
2023-12-24T03:04:35.660Z,2.20
2023-12-24T03:07:03.233Z,2.40
2023-12-24T03:09:30.881Z,2.30
2023-12-24T03:11:58.454Z,2.60
2023-12-24T03:14:26.021Z,1.70
2023-12-24T03:16:53.666Z,1.80
2023-12-24T03:19:21.306Z,1.50
2023-12-24T03:21:49.396Z,1.80
2023-12-24T03:24:16.962Z,2.20
2023-12-24T03:26:44.648Z,1.60
2023-12-24T03:29:12.204Z,1.70
2023-12-24T03:31:39.849Z,2.10
2023-12-24T03:34:07.474Z,2.70
2023-12-24T03:36:35.263Z,3.20
2023-12-24T03:39:03.953Z,2.70
2023-12-24T03:41:31.669Z,3.50
2023-12-24T03:43:59.405Z,3.50
2023-12-24T03:46:27.025Z,4.10
2023-12-24T03:48:54.689Z,3.80
2023-12-24T03:51:22.455Z,3.50
2023-12-24T03:53:49.875Z,13.90
2023-12-24T03:56:17.488Z,35.10
2023-12-24T03:58:45.032Z,49.00
2023-12-24T04:01:12.781Z,60.00
2023-12-24T04:03:40.781Z,75.80
2023-12-24T04:06:08.469Z,84.80
2023-12-24T04:08:36.086Z,78.90
2023-12-24T04:11:03.774Z,42.60
2023-12-24T04:13:31.405Z,95.90
2023-12-24T04:15:58.959Z,38.80
2023-12-24T04:18:26.631Z,20.60
2023-12-24T04:20:54.289Z,5.70
2023-12-24T04:23:22.070Z,8.70
2023-12-24T04:25:50.128Z,11.50
2023-12-24T04:28:17.786Z,4.50
2023-12-24T04:30:45.495Z,3.30
2023-12-24T04:33:13.237Z,2.10
2023-12-24T04:35:40.955Z,3.90
2023-12-24T04:38:08.745Z,3.10
2023-12-24T04:40:36.407Z,2.90
2023-12-24T04:43:03.865Z,2.00
2023-12-24T04:45:31.411Z,1.70
2023-12-24T04:47:59.314Z,1.00
2023-12-24T04:50:26.993Z,0.80
2023-12-24T04:52:54.967Z,1.00
2023-12-24T04:55:22.782Z,1.20
2023-12-24T04:57:50.440Z,1.00
2023-12-24T05:00:17.992Z,1.40
2023-12-24T05:02:45.659Z,1.30
2023-12-24T05:05:13.623Z,2.50
2023-12-24T05:07:41.290Z,2.60
2023-12-24T05:10:08.962Z,2.10
2023-12-24T05:12:36.618Z,2.30
2023-12-24T05:15:04.169Z,2.50
2023-12-24T05:17:31.795Z,2.40
2023-12-24T05:19:59.459Z,2.30
2023-12-24T05:22:27.159Z,2.60
2023-12-24T05:24:54.941Z,2.20
2023-12-24T05:27:22.897Z,2.60
2023-12-24T05:29:50.439Z,2.50
2023-12-24T05:32:18.040Z,2.70
2023-12-24T05:34:45.567Z,2.20
2023-12-24T05:37:13.115Z,2.10
2023-12-24T05:39:40.786Z,2.70
2023-12-24T05:42:08.342Z,2.50
2023-12-24T05:44:36.019Z,2.20
2023-12-24T05:47:03.597Z,2.90
2023-12-24T05:49:31.646Z,2.30
2023-12-24T05:51:59.206Z,2.40
2023-12-24T05:54:26.849Z,2.50
2023-12-24T05:56:54.404Z,2.30
2023-12-24T05:59:22.100Z,2.60
2023-12-24T06:01:49.630Z,2.20
2023-12-24T06:04:17.178Z,2.30
2023-12-24T06:06:45.117Z,1.60
2023-12-24T06:09:12.846Z,2.20
2023-12-24T06:11:40.662Z,2.00
2023-12-24T06:14:08.396Z,1.80
2023-12-24T06:16:36.100Z,2.00
2023-12-24T06:19:03.830Z,2.20
2023-12-24T06:21:31.629Z,1.60
2023-12-24T06:23:59.201Z,2.10
2023-12-24T06:26:26.827Z,2.10
2023-12-24T06:28:54.918Z,2.60
2023-12-24T06:31:22.478Z,2.50
2023-12-24T06:33:49.983Z,2.90
2023-12-24T06:36:17.700Z,1.90
2023-12-24T06:38:45.424Z,1.90
2023-12-24T06:41:13.063Z,2.00
2023-12-24T06:43:40.594Z,2.00
2023-12-24T06:46:08.252Z,1.70
2023-12-24T06:48:36.011Z,2.40
2023-12-24T06:51:03.669Z,2.00
2023-12-24T06:53:31.354Z,2.60
2023-12-24T06:55:58.997Z,1.80
2023-12-24T06:58:26.563Z,2.80
2023-12-24T07:00:54.236Z,3.10
2023-12-24T07:03:21.797Z,3.20
2023-12-24T07:05:49.506Z,3.00
2023-12-24T07:08:17.569Z,2.80
2023-12-24T07:10:45.166Z,3.00
2023-12-24T07:13:12.827Z,3.40
2023-12-24T07:15:40.394Z,3.30
2023-12-24T07:18:08.151Z,3.00
2023-12-24T07:20:35.905Z,3.20
2023-12-24T07:23:03.580Z,4.10
2023-12-24T07:25:31.309Z,3.40
2023-12-24T07:27:58.891Z,3.40
2023-12-24T07:30:26.490Z,4.80
2023-12-24T07:32:54.481Z,4.00
2023-12-24T07:35:22.678Z,10.10
2023-12-24T07:37:50.485Z,8.30
2023-12-24T07:40:18.119Z,12.00
2023-12-24T07:42:45.697Z,9.80
2023-12-24T07:45:13.354Z,16.20
2023-12-24T07:47:41.130Z,14.70
2023-12-24T07:50:09.038Z,11.80
2023-12-24T07:52:36.739Z,16.70
2023-12-24T07:55:04.606Z,14.70
2023-12-24T07:57:32.284Z,11.70
2023-12-24T07:59:59.820Z,15.00
2023-12-24T08:02:27.399Z,12.00
2023-12-24T08:04:54.984Z,11.10
2023-12-24T08:07:22.644Z,8.30
2023-12-24T08:09:50.161Z,7.40
2023-12-24T08:12:17.719Z,11.10
2023-12-24T08:14:45.694Z,7.40
2023-12-24T08:17:13.337Z,8.50
2023-12-24T08:19:41.117Z,7.50
2023-12-24T08:22:08.677Z,7.40
2023-12-24T08:24:36.340Z,7.10
2023-12-24T08:27:04.013Z,5.90
2023-12-24T08:29:31.668Z,7.30
2023-12-24T08:31:59.329Z,15.70
2023-12-24T08:34:26.914Z,5.80
2023-12-24T08:36:54.954Z,6.60
2023-12-24T08:39:22.517Z,7.60
2023-12-24T08:41:50.170Z,8.10
2023-12-24T08:44:17.787Z,6.90
2023-12-24T08:46:45.595Z,9.50
2023-12-24T08:49:13.200Z,13.10
2023-12-24T08:51:41.025Z,14.40
2023-12-24T08:54:08.572Z,12.80
2023-12-24T08:56:36.597Z,9.40
2023-12-24T08:59:04.249Z,7.60
2023-12-24T09:01:31.972Z,9.00
2023-12-24T09:03:59.606Z,9.00
2023-12-24T09:06:27.213Z,7.80
2023-12-24T09:08:54.858Z,8.90
2023-12-24T09:11:22.534Z,9.90
2023-12-24T09:13:49.870Z,11.00
2023-12-24T09:16:17.424Z,12.20
2023-12-24T09:18:45.504Z,13.60
2023-12-24T09:21:13.162Z,11.50
2023-12-24T09:23:40.890Z,13.70
2023-12-24T09:26:08.640Z,17.70
2023-12-24T09:28:36.159Z,17.00
2023-12-24T09:31:03.821Z,16.50
2023-12-24T09:33:31.693Z,19.10
2023-12-24T09:35:59.356Z,17.00
2023-12-24T09:38:26.965Z,19.10
2023-12-24T09:40:54.657Z,29.10
2023-12-24T09:43:22.629Z,25.40
2023-12-24T09:45:50.180Z,17.90
2023-12-24T09:48:17.955Z,16.10
2023-12-24T09:50:46.974Z,15.90
2023-12-24T09:53:15.135Z,18.60
2023-12-24T09:55:42.785Z,15.50
2023-12-24T09:58:10.436Z,18.70
2023-12-24T10:00:38.043Z,16.20
2023-12-24T10:03:05.749Z,13.00
2023-12-24T10:05:33.617Z,17.60
2023-12-24T10:08:01.485Z,10.00
2023-12-24T10:10:29.041Z,20.80
2023-12-24T10:12:56.715Z,13.40
2023-12-24T10:15:24.369Z,12.80
2023-12-24T10:17:52.139Z,12.30
2023-12-24T10:20:19.929Z,13.50
2023-12-24T10:22:49.392Z,14.30
2023-12-24T10:25:17.881Z,10.50
2023-12-24T10:27:45.536Z,10.10
2023-12-24T10:30:13.367Z,10.80
2023-12-24T10:32:41.487Z,12.60
2023-12-24T10:35:09.380Z,32.10
2023-12-24T10:37:37.023Z,26.00
2023-12-24T10:40:04.667Z,30.70
2023-12-24T10:42:32.221Z,30.40
2023-12-24T10:44:59.801Z,29.30
2023-12-24T10:47:27.809Z,17.70
2023-12-24T10:49:55.620Z,27.80
2023-12-24T10:52:23.174Z,47.10
2023-12-24T10:54:50.841Z,66.40
2023-12-24T10:57:18.397Z,59.40
2023-12-24T10:59:46.013Z,35.70
2023-12-24T11:02:13.761Z,36.20
2023-12-24T11:04:41.685Z,17.20
2023-12-24T11:07:09.348Z,12.40
2023-12-24T11:09:36.923Z,13.20
2023-12-24T11:12:04.590Z,10.00
2023-12-24T11:14:32.206Z,11.20
2023-12-24T11:16:59.999Z,21.40
2023-12-24T11:19:27.690Z,15.10
2023-12-24T11:21:55.527Z,12.70
2023-12-24T11:24:23.090Z,13.00
2023-12-24T11:26:51.158Z,14.80
2023-12-24T11:29:18.841Z,13.70
2023-12-24T11:31:46.579Z,13.80
2023-12-24T11:34:14.205Z,12.50
2023-12-24T11:36:42.022Z,10.60
2023-12-24T11:39:09.681Z,10.80
2023-12-24T11:41:37.264Z,10.50
2023-12-24T11:44:04.970Z,20.30
2023-12-24T11:46:32.651Z,14.50
2023-12-24T11:49:00.661Z,16.30
2023-12-24T11:51:28.296Z,14.50
2023-12-24T11:53:55.736Z,13.60
2023-12-24T11:56:23.339Z,12.30
2023-12-24T11:58:51.068Z,12.00
2023-12-24T12:01:18.716Z,16.30
2023-12-24T12:03:46.217Z,13.00
2023-12-24T12:06:13.946Z,13.10
2023-12-24T12:08:41.626Z,14.30
2023-12-24T12:11:09.617Z,13.40
2023-12-24T12:13:37.234Z,14.50
2023-12-24T12:16:04.899Z,16.40
2023-12-24T12:18:32.500Z,19.50
2023-12-24T12:21:00.215Z,26.30
2023-12-24T12:23:27.823Z,17.80
2023-12-24T12:25:55.529Z,15.80
2023-12-24T12:28:23.095Z,18.70
2023-12-24T12:30:50.768Z,23.90
2023-12-24T12:33:18.722Z,18.10
2023-12-24T12:35:46.631Z,18.20
2023-12-24T12:38:14.291Z,21.40
2023-12-24T12:40:47.225Z,19.70
2023-12-24T12:43:16.951Z,19.50
2023-12-24T12:45:44.518Z,17.50
2023-12-24T12:48:12.322Z,18.70
2023-12-24T12:50:40.232Z,22.20
2023-12-24T12:53:08.081Z,18.30
2023-12-24T12:55:35.758Z,18.80
2023-12-24T12:58:03.318Z,18.90
2023-12-24T13:00:30.879Z,16.70
2023-12-24T13:02:58.649Z,19.80
2023-12-24T13:05:26.559Z,22.90
2023-12-24T13:07:54.376Z,23.20
2023-12-24T13:10:22.036Z,22.50
2023-12-24T13:12:50.114Z,20.60
2023-12-24T13:15:18.079Z,115.20
2023-12-24T13:17:45.764Z,22.10
2023-12-24T13:20:13.529Z,31.50
2023-12-24T13:22:41.072Z,19.90
2023-12-24T13:25:08.729Z,31.10
2023-12-24T13:27:36.488Z,51.90
2023-12-24T13:30:04.165Z,49.20
2023-12-24T13:32:31.887Z,31.60
2023-12-24T13:34:59.779Z,41.50
2023-12-24T13:37:27.336Z,24.20
2023-12-24T13:39:54.995Z,27.80
2023-12-24T13:42:22.572Z,28.20
2023-12-24T13:44:50.241Z,27.40
2023-12-24T13:47:18.011Z,51.50
2023-12-24T13:49:45.549Z,29.90
2023-12-24T13:52:13.104Z,42.80
2023-12-24T13:54:40.763Z,27.10
2023-12-24T13:57:08.323Z,19.10
2023-12-24T13:59:35.998Z,22.30
2023-12-24T14:02:04.250Z,20.90
2023-12-24T14:04:31.918Z,25.00
2023-12-24T14:06:59.484Z,41.40
2023-12-24T14:09:27.190Z,68.60
2023-12-24T14:11:54.795Z,28.10
2023-12-24T14:14:22.377Z,47.90
2023-12-24T14:16:50.035Z,30.20
2023-12-24T14:19:17.625Z,33.50
2023-12-24T14:21:45.232Z,27.10
2023-12-24T14:24:12.811Z,24.00
2023-12-24T14:26:40.497Z,22.70
2023-12-24T14:29:08.238Z,19.90
2023-12-24T14:31:35.903Z,24.10
2023-12-24T14:34:04.020Z,20.30
2023-12-24T14:36:31.823Z,20.60
2023-12-24T14:38:59.491Z,19.20
2023-12-24T14:41:27.190Z,15.00
2023-12-24T14:43:54.603Z,14.20
2023-12-24T14:46:22.173Z,13.40
2023-12-24T14:48:49.923Z,14.80
2023-12-24T14:51:17.692Z,19.10
2023-12-24T14:53:45.418Z,17.80
2023-12-24T14:56:13.081Z,15.30
2023-12-24T14:58:41.185Z,17.50
2023-12-24T15:01:08.742Z,20.90
2023-12-24T15:03:36.414Z,16.60
2023-12-24T15:06:04.087Z,21.60
2023-12-24T15:08:31.980Z,17.50
2023-12-24T15:10:59.486Z,18.50
2023-12-24T15:13:27.272Z,27.70
2023-12-24T15:15:54.925Z,10.80
2023-12-24T15:18:22.673Z,12.60
2023-12-24T15:20:50.468Z,11.00
2023-12-24T15:23:18.705Z,12.40
2023-12-24T15:25:46.377Z,11.70
2023-12-24T15:28:13.934Z,14.00
2023-12-24T15:30:41.546Z,12.30
2023-12-24T15:33:09.468Z,12.40
2023-12-24T15:35:37.239Z,9.30
2023-12-24T15:38:04.994Z,11.80
2023-12-24T15:40:32.576Z,14.10
2023-12-24T15:43:00.287Z,12.50
2023-12-24T15:45:28.082Z,9.80
2023-12-24T15:47:55.901Z,9.20
2023-12-24T15:50:23.663Z,8.70
2023-12-24T15:52:51.452Z,30.10
2023-12-24T15:55:19.233Z,29.80
2023-12-24T15:57:46.788Z,15.40
2023-12-24T16:00:14.461Z,15.40
2023-12-24T16:02:42.084Z,22.00
2023-12-24T16:05:09.893Z,14.00
2023-12-24T16:07:37.531Z,14.30
2023-12-24T16:10:05.136Z,16.20
2023-12-24T16:12:32.902Z,19.30
2023-12-24T16:15:00.625Z,19.30
2023-12-24T16:17:28.235Z,21.10
2023-12-24T16:19:55.841Z,33.90
2023-12-24T16:22:23.399Z,44.10
2023-12-24T16:24:51.780Z,13.70
2023-12-24T16:27:19.350Z,24.60
2023-12-24T16:29:46.983Z,17.30
2023-12-24T16:32:14.684Z,14.20
2023-12-24T16:34:42.291Z,14.30
2023-12-24T16:37:09.986Z,15.80
2023-12-24T16:39:37.564Z,13.80
2023-12-24T16:42:05.215Z,12.10
2023-12-24T16:44:32.792Z,17.60
2023-12-24T16:47:00.733Z,18.90
2023-12-24T16:49:28.370Z,12.00
2023-12-24T16:51:56.171Z,13.40
2023-12-24T16:54:23.716Z,11.10
2023-12-24T16:56:51.483Z,14.40
2023-12-24T16:59:19.267Z,16.90
2023-12-24T17:01:46.914Z,11.70
2023-12-24T17:04:15.259Z,11.60
2023-12-24T17:06:43.658Z,11.10
2023-12-24T17:09:11.214Z,12.00
2023-12-24T17:11:38.936Z,9.80
2023-12-24T17:14:06.449Z,9.70
2023-12-24T17:16:33.993Z,10.10
2023-12-24T17:19:01.712Z,10.80
2023-12-24T17:21:29.435Z,14.20
2023-12-24T17:23:56.791Z,8.90
2023-12-24T17:26:24.463Z,9.20
2023-12-24T17:28:51.985Z,8.00
2023-12-24T17:31:19.862Z,9.70
2023-12-24T17:33:47.676Z,7.50
2023-12-24T17:36:15.583Z,6.90
2023-12-24T17:38:43.209Z,6.80
2023-12-24T17:41:10.948Z,7.60
2023-12-24T17:43:38.492Z,7.40
2023-12-24T17:46:06.043Z,7.60
2023-12-24T17:48:33.805Z,6.40
2023-12-24T17:51:01.699Z,7.20
2023-12-24T17:53:29.245Z,7.60
2023-12-24T17:55:56.901Z,6.30
2023-12-24T17:58:24.543Z,7.10
2023-12-24T18:00:52.147Z,7.00
2023-12-24T18:03:19.905Z,8.30
2023-12-24T18:05:47.774Z,8.60
2023-12-24T18:08:15.679Z,18.60
2023-12-24T18:10:43.377Z,8.60
2023-12-24T18:13:11.020Z,8.60
2023-12-24T18:15:38.887Z,9.80
2023-12-24T18:18:06.752Z,9.90
2023-12-24T18:20:34.538Z,6.70
2023-12-24T18:23:02.089Z,6.20
2023-12-24T18:25:29.734Z,6.60
2023-12-24T18:27:57.297Z,5.90
2023-12-24T18:30:24.976Z,6.10
2023-12-24T18:32:52.921Z,4.90
2023-12-24T18:35:20.913Z,5.30
2023-12-24T18:37:48.877Z,5.80
2023-12-24T18:40:16.531Z,5.10
2023-12-24T18:42:44.206Z,5.40
2023-12-24T18:45:11.857Z,6.90
2023-12-24T18:47:39.514Z,5.80
2023-12-24T18:50:07.177Z,6.60
2023-12-24T18:52:34.832Z,5.50
2023-12-24T18:55:02.395Z,4.50
2023-12-24T18:57:30.261Z,4.80
2023-12-24T18:59:57.843Z,5.00
2023-12-24T19:02:25.644Z,4.10
2023-12-24T19:04:53.370Z,5.10
2023-12-24T19:07:21.114Z,5.70
2023-12-24T19:09:48.804Z,4.30
2023-12-24T19:12:17.094Z,5.80
2023-12-24T19:14:45.020Z,10.70
2023-12-24T19:17:12.782Z,14.40
2023-12-24T19:19:41.074Z,7.00
2023-12-24T19:22:09.326Z,7.60
2023-12-24T19:24:36.885Z,6.60
2023-12-24T19:27:04.447Z,6.90
2023-12-24T19:29:32.076Z,6.20
2023-12-24T19:31:59.771Z,6.50
2023-12-24T19:34:27.448Z,6.30
2023-12-24T19:36:54.987Z,6.90
2023-12-24T19:39:22.645Z,7.80
2023-12-24T19:41:50.525Z,7.10
2023-12-24T19:44:18.219Z,8.20
2023-12-24T19:46:45.731Z,6.50
2023-12-24T19:49:13.984Z,6.00
2023-12-24T19:51:42.588Z,6.30
2023-12-24T19:54:10.268Z,6.30
2023-12-24T19:56:37.828Z,5.70
2023-12-24T19:59:05.374Z,5.10
2023-12-24T20:01:38.663Z,4.50
2023-12-24T20:04:13.254Z,5.30
2023-12-24T20:06:41.237Z,5.40
2023-12-24T20:09:09.045Z,5.20
2023-12-24T20:11:36.854Z,6.40
2023-12-24T20:14:04.348Z,5.20
2023-12-24T20:16:31.967Z,5.30
2023-12-24T20:18:59.691Z,7.20
2023-12-24T20:21:27.758Z,11.70
2023-12-24T20:23:55.833Z,7.70
2023-12-24T20:26:23.536Z,6.80
2023-12-24T20:28:51.260Z,6.80
2023-12-24T20:31:18.904Z,5.60
2023-12-24T20:33:49.159Z,7.60
2023-12-24T20:36:17.715Z,7.50
2023-12-24T20:38:45.404Z,12.00
2023-12-24T20:41:13.115Z,11.30
2023-12-24T20:43:40.823Z,8.00
2023-12-24T20:46:08.450Z,6.40
2023-12-24T20:48:36.455Z,5.50
2023-12-24T20:51:04.558Z,5.30
2023-12-24T20:53:32.285Z,4.80
2023-12-24T20:55:59.913Z,4.50
2023-12-24T20:58:27.573Z,4.70
2023-12-24T21:00:55.230Z,4.00
2023-12-24T21:03:23.159Z,4.20
2023-12-24T21:05:51.021Z,4.40
2023-12-24T21:08:18.919Z,5.80
2023-12-24T21:10:46.916Z,7.30
2023-12-24T21:13:14.575Z,7.60
2023-12-24T21:15:42.132Z,9.40
2023-12-24T21:18:09.868Z,10.70
2023-12-24T21:20:37.583Z,11.20
2023-12-24T21:23:05.218Z,35.10
2023-12-24T21:25:32.768Z,13.80
2023-12-24T21:28:00.454Z,17.50
2023-12-24T21:30:28.112Z,13.40
2023-12-24T21:32:56.215Z,20.30
2023-12-24T21:35:24.034Z,22.90
2023-12-24T21:37:51.796Z,15.30
2023-12-24T21:40:19.553Z,16.00
2023-12-24T21:42:47.120Z,19.90
2023-12-24T21:45:14.673Z,15.00
2023-12-24T21:47:42.541Z,22.60
2023-12-24T21:50:10.202Z,24.50
2023-12-24T21:52:37.755Z,23.10
2023-12-24T21:55:05.419Z,18.30
2023-12-24T21:57:32.985Z,23.50
2023-12-24T22:00:00.652Z,18.30
2023-12-24T22:02:28.326Z,15.00
2023-12-24T22:04:56.028Z,14.50
2023-12-24T22:07:23.748Z,13.00
2023-12-24T22:09:51.284Z,6.60
2023-12-24T22:12:19.160Z,7.80
2023-12-24T22:14:46.805Z,6.40
2023-12-24T22:17:14.509Z,5.10
2023-12-24T22:19:42.127Z,7.10
2023-12-24T22:22:09.798Z,4.60
2023-12-24T22:24:37.475Z,4.90
2023-12-24T22:27:05.030Z,4.20
2023-12-24T22:29:32.690Z,3.60
2023-12-24T22:32:00.261Z,3.60
2023-12-24T22:34:27.893Z,4.20
2023-12-24T22:36:55.557Z,3.50
2023-12-24T22:39:23.114Z,3.50
2023-12-24T22:41:50.940Z,3.00
2023-12-24T22:44:18.770Z,2.90
2023-12-24T22:46:46.309Z,2.30
2023-12-24T22:49:14.059Z,2.60
2023-12-24T22:51:41.831Z,1.90
2023-12-24T22:54:09.417Z,2.70
2023-12-24T22:56:37.145Z,2.00
2023-12-24T22:59:04.817Z,2.20
2023-12-24T23:01:32.481Z,2.30
2023-12-24T23:03:59.987Z,1.50
2023-12-24T23:06:27.864Z,1.70
2023-12-24T23:08:55.690Z,2.20
2023-12-24T23:11:23.465Z,2.50
2023-12-24T23:13:51.191Z,1.70
2023-12-24T23:16:19.065Z,1.80
2023-12-24T23:18:46.828Z,1.60
2023-12-24T23:21:14.503Z,1.40
2023-12-24T23:23:42.090Z,1.40
2023-12-24T23:26:09.808Z,1.70
2023-12-24T23:28:37.372Z,1.40
2023-12-24T23:31:05.307Z,1.80
2023-12-24T23:33:33.080Z,1.60
2023-12-24T23:36:08.755Z,2.00
2023-12-24T23:38:41.076Z,1.80
2023-12-24T23:41:08.874Z,1.50
2023-12-24T23:43:39.425Z,1.80
2023-12-24T23:46:08.505Z,1.30
2023-12-24T23:48:36.201Z,1.50
2023-12-24T23:51:03.972Z,1.40
2023-12-24T23:53:31.758Z,2.00
2023-12-24T23:55:59.477Z,1.10
2023-12-24T23:58:27.426Z,1.30
